Gustaf Dalen, Sweden

12:24 PM CEST on March 31, 2015 (GMT +0200)
Skavsta | | Change Station
CLOSE
Current Station
Airport
Location: Nykoping Skavsta,
Elevation: 141 ft
Nearby Weather Stations

Elev 141 ft 58.79 °N, 16.91 °E | Updated 34 minutes ago

Scattered Clouds
Scattered Clouds
41 °F
Feels Like 35 °F
N
9
Wind Variable Wind from WSW

Today
High -- | Low -- °F
--% Chance of Precip.
Yesterday
High -- | Low -- °F
Precip. -- in
6:21 AM 7:28 PM
Waxing Gibbous, 86% visible
Pressure 29.03 in
Visibility 6.2 miles
Clouds Scattered Clouds 1500 ft
Scattered Clouds 7600 ft
Windchill 35 °F
Dew Point 36 °F
Humidity 81%
Rainfall 0.00 in
Snow Depth Not available.
UV 4 out of 12
Pollen Not available.
Air Quality Not available.
Flu Activity Not available.
METAR ESKN 310950Z 25008KT 9999 SCT015 SCT076 05/02 Q0983 R26/29//95

More Conditions Fewer Conditions

Pressure 29.03 in
Visibility 6.2 miles
Clouds Scattered Clouds 1500 ft
Scattered Clouds 7600 ft
Windchill 35 °F
Dew Point 36 °F
Humidity 81%
Rainfall 0.00 in
Snow Depth Not available.
UV 4 out of 12
Pollen Not available.
Air Quality Not available.
Flu Activity Not available.
METAR ESKN 310950Z 25008KT 9999 SCT015 SCT076 05/02 Q0983 R26/29//95

More Conditions Fewer Conditions

10-Day Weather Forecast

Almanac

Astronomy

Mar. 31, 2015 Rise Set
Actual Time
Civil Twilight
Nautical Twilight
Astronomical Twilight
Moon
Length of Visible Light
Length of Day
Tomorrow will be .
, % of the Moon is Illuminated

Today's Extremes

Country Highs Country Lows

Community

WunderPhotos

Upload Photos

1,809,736 photos uploaded!

WunderBlogs® & News

Nearby

Air Quality

  Air Quality AQ Index Pollutant
Not available.

Snow Depth

Station Depth Elevation

Earthquake Activity

City Distance Mag. Time & Date
Minimum magnitude displayed is 2.5.

Coastal Water Temperatures

Place Temperature

Stations

Nearby Weather Stations

Station Location Temp. Windchill Dew Point Humidity Wind Precip. Elev Updated Type